sensor_id;sensor_type;location;lat;lon;timestamp;P1;durP1;ratioP1;P2;durP2;ratioP2
37771;SDS011;23610;59.380;24.642;2023-06-26T00:04:36;6.63;;;3.38;;
37771;SDS011;23610;59.380;24.642;2023-06-26T00:09:39;6.82;;;4.45;;
37771;SDS011;23610;59.380;24.642;2023-06-26T00:14:41;5.18;;;4.07;;
37771;SDS011;23610;59.380;24.642;2023-06-26T00:19:44;10.25;;;7.60;;
37771;SDS011;23610;59.380;24.642;2023-06-26T00:24:47;8.88;;;5.85;;
37771;SDS011;23610;59.380;24.642;2023-06-26T00:29:49;11.07;;;5.97;;
37771;SDS011;23610;59.380;24.642;2023-06-26T00:34:54;12.32;;;7.03;;
37771;SDS011;23610;59.380;24.642;2023-06-26T00:39:56;18.88;;;10.63;;
37771;SDS011;23610;59.380;24.642;2023-06-26T00:44:59;14.50;;;8.50;;
37771;SDS011;23610;59.380;24.642;2023-06-26T00:50:02;14.63;;;7.50;;
37771;SDS011;23610;59.380;24.642;2023-06-26T00:55:05;9.45;;;5.07;;
37771;SDS011;23610;59.380;24.642;2023-06-26T01:00:10;8.88;;;4.78;;
37771;SDS011;23610;59.380;24.642;2023-06-26T01:05:14;7.10;;;4.87;;
37771;SDS011;23610;59.380;24.642;2023-06-26T01:10:23;10.07;;;5.60;;
37771;SDS011;23610;59.380;24.642;2023-06-26T01:15:29;8.13;;;4.95;;
37771;SDS011;23610;59.380;24.642;2023-06-26T01:20:32;6.68;;;4.68;;
37771;SDS011;23610;59.380;24.642;2023-06-26T01:31:15;6.45;;;4.80;;
37771;SDS011;23610;59.380;24.642;2023-06-26T01:36:19;6.60;;;4.22;;
37771;SDS011;23610;59.380;24.642;2023-06-26T01:41:21;8.40;;;4.22;;
37771;SDS011;23610;59.380;24.642;2023-06-26T01:46:33;4.57;;;3.80;;
37771;SDS011;23610;59.380;24.642;2023-06-26T01:51:47;6.03;;;3.42;;
37771;SDS011;23610;59.380;24.642;2023-06-26T01:57:15;8.52;;;3.83;;
37771;SDS011;23610;59.380;24.642;2023-06-26T02:02:20;8.52;;;4.10;;
37771;SDS011;23610;59.380;24.642;2023-06-26T02:07:24;4.63;;;3.65;;
37771;SDS011;23610;59.380;24.642;2023-06-26T02:12:29;9.02;;;3.83;;
37771;SDS011;23610;59.380;24.642;2023-06-26T02:17:31;9.10;;;4.00;;
37771;SDS011;23610;59.380;24.642;2023-06-26T02:22:34;5.10;;;3.53;;
37771;SDS011;23610;59.380;24.642;2023-06-26T02:27:37;4.05;;;3.38;;
37771;SDS011;23610;59.380;24.642;2023-06-26T02:32:40;5.85;;;3.33;;
37771;SDS011;23610;59.380;24.642;2023-06-26T02:37:43;5.82;;;3.88;;
37771;SDS011;23610;59.380;24.642;2023-06-26T02:42:47;5.32;;;3.65;;
37771;SDS011;23610;59.380;24.642;2023-06-26T02:47:51;5.00;;;3.00;;
37771;SDS011;23610;59.380;24.642;2023-06-26T02:52:53;3.55;;;3.15;;
37771;SDS011;23610;59.380;24.642;2023-06-26T02:57:56;3.20;;;2.80;;
37771;SDS011;23610;59.380;24.642;2023-06-26T03:02:59;4.60;;;3.78;;
37771;SDS011;23610;59.380;24.642;2023-06-26T03:08:02;3.53;;;3.22;;
37771;SDS011;23610;59.380;24.642;2023-06-26T03:13:06;3.95;;;3.25;;
37771;SDS011;23610;59.380;24.642;2023-06-26T03:18:09;6.15;;;2.97;;
37771;SDS011;23610;59.380;24.642;2023-06-26T03:23:11;10.27;;;3.60;;
37771;SDS011;23610;59.380;24.642;2023-06-26T03:28:14;3.97;;;3.55;;
37771;SDS011;23610;59.380;24.642;2023-06-26T03:33:17;6.78;;;3.45;;
37771;SDS011;23610;59.380;24.642;2023-06-26T03:38:21;8.70;;;3.80;;
37771;SDS011;23610;59.380;24.642;2023-06-26T03:43:27;4.32;;;3.17;;
37771;SDS011;23610;59.380;24.642;2023-06-26T03:48:53;5.28;;;2.90;;
37771;SDS011;23610;59.380;24.642;2023-06-26T03:53:55;4.72;;;2.30;;
37771;SDS011;23610;59.380;24.642;2023-06-26T03:58:58;3.28;;;2.55;;
37771;SDS011;23610;59.380;24.642;2023-06-26T04:04:01;3.08;;;2.78;;
37771;SDS011;23610;59.380;24.642;2023-06-26T04:09:06;3.28;;;2.53;;
37771;SDS011;23610;59.380;24.642;2023-06-26T04:14:08;2.50;;;2.30;;
37771;SDS011;23610;59.380;24.642;2023-06-26T04:19:11;3.03;;;2.58;;
37771;SDS011;23610;59.380;24.642;2023-06-26T04:24:15;3.50;;;2.67;;
37771;SDS011;23610;59.380;24.642;2023-06-26T04:29:18;3.45;;;2.40;;
37771;SDS011;23610;59.380;24.642;2023-06-26T04:34:21;2.55;;;2.35;;
37771;SDS011;23610;59.380;24.642;2023-06-26T04:39:24;4.20;;;2.17;;
37771;SDS011;23610;59.380;24.642;2023-06-26T04:44:26;2.72;;;2.47;;
37771;SDS011;23610;59.380;24.642;2023-06-26T04:49:32;2.50;;;2.30;;
37771;SDS011;23610;59.380;24.642;2023-06-26T04:54:36;3.55;;;2.08;;
37771;SDS011;23610;59.380;24.642;2023-06-26T04:59:39;2.58;;;2.33;;
37771;SDS011;23610;59.380;24.642;2023-06-26T05:04:42;4.20;;;2.50;;
37771;SDS011;23610;59.380;24.642;2023-06-26T05:09:44;2.63;;;2.38;;
37771;SDS011;23610;59.380;24.642;2023-06-26T05:14:47;7.47;;;2.50;;
37771;SDS011;23610;59.380;24.642;2023-06-26T05:20:10;5.95;;;2.80;;
37771;SDS011;23610;59.380;24.642;2023-06-26T05:25:13;6.25;;;2.72;;
37771;SDS011;23610;59.380;24.642;2023-06-26T05:30:17;9.70;;;2.47;;
37771;SDS011;23610;59.380;24.642;2023-06-26T05:35:20;2.83;;;2.13;;
37771;SDS011;23610;59.380;24.642;2023-06-26T05:40:24;2.72;;;2.53;;
37771;SDS011;23610;59.380;24.642;2023-06-26T05:45:27;2.85;;;2.50;;
37771;SDS011;23610;59.380;24.642;2023-06-26T05:50:30;4.45;;;2.70;;
37771;SDS011;23610;59.380;24.642;2023-06-26T05:55:33;3.28;;;1.95;;
37771;SDS011;23610;59.380;24.642;2023-06-26T06:00:36;2.80;;;2.60;;
37771;SDS011;23610;59.380;24.642;2023-06-26T06:05:40;3.53;;;2.25;;
37771;SDS011;23610;59.380;24.642;2023-06-26T06:10:43;4.38;;;2.35;;
37771;SDS011;23610;59.380;24.642;2023-06-26T06:15:45;2.55;;;2.35;;
37771;SDS011;23610;59.380;24.642;2023-06-26T06:20:48;2.38;;;2.10;;
37771;SDS011;23610;59.380;24.642;2023-06-26T06:25:50;5.28;;;2.30;;
37771;SDS011;23610;59.380;24.642;2023-06-26T06:30:53;5.18;;;1.98;;
37771;SDS011;23610;59.380;24.642;2023-06-26T06:35:56;5.03;;;2.38;;
37771;SDS011;23610;59.380;24.642;2023-06-26T06:40:58;4.72;;;2.42;;
37771;SDS011;23610;59.380;24.642;2023-06-26T06:46:02;2.42;;;2.03;;
37771;SDS011;23610;59.380;24.642;2023-06-26T06:51:05;6.03;;;2.42;;
37771;SDS011;23610;59.380;24.642;2023-06-26T06:56:10;2.78;;;2.20;;
37771;SDS011;23610;59.380;24.642;2023-06-26T07:01:13;2.58;;;1.98;;
37771;SDS011;23610;59.380;24.642;2023-06-26T07:06:15;3.13;;;1.90;;
37771;SDS011;23610;59.380;24.642;2023-06-26T07:11:18;5.20;;;2.25;;
37771;SDS011;23610;59.380;24.642;2023-06-26T07:16:20;3.83;;;2.15;;
37771;SDS011;23610;59.380;24.642;2023-06-26T07:21:23;4.43;;;2.67;;
37771;SDS011;23610;59.380;24.642;2023-06-26T07:26:27;9.17;;;4.50;;
37771;SDS011;23610;59.380;24.642;2023-06-26T07:31:45;3.65;;;2.95;;
37771;SDS011;23610;59.380;24.642;2023-06-26T07:36:47;8.20;;;3.25;;
37771;SDS011;23610;59.380;24.642;2023-06-26T07:41:50;2.53;;;2.33;;
37771;SDS011;23610;59.380;24.642;2023-06-26T07:46:53;3.03;;;2.67;;
37771;SDS011;23610;59.380;24.642;2023-06-26T07:51:56;6.22;;;2.95;;
37771;SDS011;23610;59.380;24.642;2023-06-26T07:57:00;4.63;;;2.80;;
37771;SDS011;23610;59.380;24.642;2023-06-26T08:02:06;4.10;;;2.92;;
37771;SDS011;23610;59.380;24.642;2023-06-26T08:07:08;3.13;;;2.83;;
37771;SDS011;23610;59.380;24.642;2023-06-26T08:12:11;3.92;;;2.60;;
37771;SDS011;23610;59.380;24.642;2023-06-26T08:17:14;4.72;;;2.70;;
37771;SDS011;23610;59.380;24.642;2023-06-26T08:22:16;2.75;;;2.55;;
37771;SDS011;23610;59.380;24.642;2023-06-26T08:27:19;13.10;;;2.70;;
37771;SDS011;23610;59.380;24.642;2023-06-26T08:32:22;3.83;;;3.03;;
37771;SDS011;23610;59.380;24.642;2023-06-26T08:37:24;4.20;;;3.78;;
37771;SDS011;23610;59.380;24.642;2023-06-26T08:42:27;5.38;;;3.60;;
37771;SDS011;23610;59.380;24.642;2023-06-26T08:47:30;5.03;;;4.00;;
37771;SDS011;23610;59.380;24.642;2023-06-26T08:52:43;5.10;;;3.83;;
37771;SDS011;23610;59.380;24.642;2023-06-26T08:57:56;6.53;;;3.90;;
37771;SDS011;23610;59.380;24.642;2023-06-26T09:03:00;7.95;;;3.72;;
37771;SDS011;23610;59.380;24.642;2023-06-26T09:08:06;5.65;;;3.88;;
37771;SDS011;23610;59.380;24.642;2023-06-26T09:13:09;12.25;;;5.03;;
37771;SDS011;23610;59.380;24.642;2023-06-26T09:18:29;6.50;;;4.15;;
37771;SDS011;23610;59.380;24.642;2023-06-26T09:23:33;4.37;;;3.97;;
37771;SDS011;23610;59.380;24.642;2023-06-26T09:28:37;12.65;;;4.43;;
37771;SDS011;23610;59.380;24.642;2023-06-26T09:33:40;8.07;;;5.90;;
37771;SDS011;23610;59.380;24.642;2023-06-26T09:38:44;6.18;;;5.57;;
37771;SDS011;23610;59.380;24.642;2023-06-26T09:43:47;8.88;;;6.75;;
37771;SDS011;23610;59.380;24.642;2023-06-26T09:49:07;12.13;;;6.15;;
37771;SDS011;23610;59.380;24.642;2023-06-26T09:54:15;10.13;;;7.15;;
37771;SDS011;23610;59.380;24.642;2023-06-26T09:59:23;9.90;;;6.60;;
37771;SDS011;23610;59.380;24.642;2023-06-26T10:04:26;10.18;;;7.85;;
37771;SDS011;23610;59.380;24.642;2023-06-26T10:09:29;9.95;;;8.38;;
37771;SDS011;23610;59.380;24.642;2023-06-26T10:14:37;11.23;;;7.32;;
37771;SDS011;23610;59.380;24.642;2023-06-26T10:19:41;9.73;;;7.28;;
37771;SDS011;23610;59.380;24.642;2023-06-26T10:24:49;10.07;;;7.68;;
37771;SDS011;23610;59.380;24.642;2023-06-26T10:29:56;7.70;;;7.00;;
37771;SDS011;23610;59.380;24.642;2023-06-26T10:35:05;11.27;;;7.57;;
37771;SDS011;23610;59.380;24.642;2023-06-26T10:40:08;8.82;;;6.93;;
37771;SDS011;23610;59.380;24.642;2023-06-26T10:45:15;10.13;;;6.05;;
37771;SDS011;23610;59.380;24.642;2023-06-26T10:50:20;8.07;;;6.07;;
37771;SDS011;23610;59.380;24.642;2023-06-26T10:55:30;7.38;;;6.57;;
37771;SDS011;23610;59.380;24.642;2023-06-26T11:00:32;9.07;;;5.78;;
37771;SDS011;23610;59.380;24.642;2023-06-26T11:05:35;7.68;;;5.55;;
37771;SDS011;23610;59.380;24.642;2023-06-26T11:10:52;6.78;;;5.88;;
37771;SDS011;23610;59.380;24.642;2023-06-26T11:15:57;6.60;;;5.30;;
37771;SDS011;23610;59.380;24.642;2023-06-26T11:26:14;14.10;;;5.40;;
37771;SDS011;23610;59.380;24.642;2023-06-26T11:31:30;6.93;;;4.72;;
37771;SDS011;23610;59.380;24.642;2023-06-26T11:36:40;8.80;;;5.60;;
37771;SDS011;23610;59.380;24.642;2023-06-26T11:41:47;10.38;;;6.13;;
37771;SDS011;23610;59.380;24.642;2023-06-26T11:46:52;7.10;;;5.45;;
37771;SDS011;23610;59.380;24.642;2023-06-26T11:51:56;9.20;;;5.13;;
37771;SDS011;23610;59.380;24.642;2023-06-26T11:56:59;6.57;;;5.05;;
37771;SDS011;23610;59.380;24.642;2023-06-26T12:02:06;5.55;;;5.05;;
37771;SDS011;23610;59.380;24.642;2023-06-26T12:07:14;6.95;;;4.82;;
37771;SDS011;23610;59.380;24.642;2023-06-26T12:12:21;5.78;;;5.18;;
37771;SDS011;23610;59.380;24.642;2023-06-26T12:17:24;8.93;;;5.60;;
37771;SDS011;23610;59.380;24.642;2023-06-26T12:22:33;6.07;;;5.35;;
37771;SDS011;23610;59.380;24.642;2023-06-26T12:27:39;7.20;;;4.90;;
37771;SDS011;23610;59.380;24.642;2023-06-26T12:32:45;8.20;;;5.10;;
37771;SDS011;23610;59.380;24.642;2023-06-26T12:37:48;5.30;;;4.47;;
37771;SDS011;23610;59.380;24.642;2023-06-26T12:42:51;5.28;;;4.78;;
37771;SDS011;23610;59.380;24.642;2023-06-26T12:47:55;5.60;;;4.65;;
37771;SDS011;23610;59.380;24.642;2023-06-26T12:53:13;12.75;;;5.10;;
37771;SDS011;23610;59.380;24.642;2023-06-26T12:58:16;4.63;;;4.20;;
37771;SDS011;23610;59.380;24.642;2023-06-26T13:03:19;4.95;;;4.53;;
37771;SDS011;23610;59.380;24.642;2023-06-26T13:08:22;6.22;;;3.80;;
37771;SDS011;23610;59.380;24.642;2023-06-26T13:13:25;5.95;;;4.18;;
37771;SDS011;23610;59.380;24.642;2023-06-26T13:18:27;4.53;;;4.13;;
37771;SDS011;23610;59.380;24.642;2023-06-26T13:23:30;7.35;;;4.28;;
37771;SDS011;23610;59.380;24.642;2023-06-26T13:28:32;7.43;;;4.32;;
37771;SDS011;23610;59.380;24.642;2023-06-26T13:33:35;5.60;;;4.22;;
37771;SDS011;23610;59.380;24.642;2023-06-26T13:38:38;4.95;;;4.50;;
37771;SDS011;23610;59.380;24.642;2023-06-26T13:43:40;4.40;;;4.05;;
37771;SDS011;23610;59.380;24.642;2023-06-26T13:48:44;6.57;;;3.97;;
37771;SDS011;23610;59.380;24.642;2023-06-26T13:53:49;7.47;;;4.85;;
37771;SDS011;23610;59.380;24.642;2023-06-26T13:58:53;6.55;;;4.30;;
37771;SDS011;23610;59.380;24.642;2023-06-26T14:03:56;10.65;;;5.65;;
37771;SDS011;23610;59.380;24.642;2023-06-26T14:08:58;5.97;;;3.63;;
37771;SDS011;23610;59.380;24.642;2023-06-26T14:14:01;4.97;;;3.20;;
37771;SDS011;23610;59.380;24.642;2023-06-26T14:19:05;7.55;;;4.43;;
37771;SDS011;23610;59.380;24.642;2023-06-26T14:24:07;11.70;;;4.25;;
37771;SDS011;23610;59.380;24.642;2023-06-26T14:29:10;5.70;;;4.07;;
37771;SDS011;23610;59.380;24.642;2023-06-26T14:34:14;4.15;;;3.72;;
37771;SDS011;23610;59.380;24.642;2023-06-26T14:39:17;5.35;;;3.78;;
37771;SDS011;23610;59.380;24.642;2023-06-26T14:44:20;4.20;;;3.70;;
37771;SDS011;23610;59.380;24.642;2023-06-26T14:49:23;8.45;;;4.30;;
37771;SDS011;23610;59.380;24.642;2023-06-26T14:54:25;8.95;;;3.88;;
37771;SDS011;23610;59.380;24.642;2023-06-26T14:59:28;6.85;;;4.15;;
37771;SDS011;23610;59.380;24.642;2023-06-26T15:04:31;4.97;;;3.50;;
37771;SDS011;23610;59.380;24.642;2023-06-26T15:09:34;4.23;;;3.77;;
37771;SDS011;23610;59.380;24.642;2023-06-26T15:14:37;4.60;;;4.20;;
37771;SDS011;23610;59.380;24.642;2023-06-26T15:19:39;4.00;;;3.45;;
37771;SDS011;23610;59.380;24.642;2023-06-26T15:24:42;3.70;;;3.28;;
37771;SDS011;23610;59.380;24.642;2023-06-26T15:29:45;5.60;;;4.20;;
37771;SDS011;23610;59.380;24.642;2023-06-26T15:34:48;4.43;;;4.03;;
37771;SDS011;23610;59.380;24.642;2023-06-26T15:39:50;5.47;;;3.13;;
37771;SDS011;23610;59.380;24.642;2023-06-26T15:44:53;4.03;;;3.63;;
37771;SDS011;23610;59.380;24.642;2023-06-26T15:49:56;4.30;;;3.85;;
37771;SDS011;23610;59.380;24.642;2023-06-26T15:54:58;4.32;;;3.03;;
37771;SDS011;23610;59.380;24.642;2023-06-26T16:00:01;5.22;;;3.65;;
37771;SDS011;23610;59.380;24.642;2023-06-26T16:05:12;6.63;;;3.80;;
37771;SDS011;23610;59.380;24.642;2023-06-26T16:10:15;5.10;;;4.00;;
37771;SDS011;23610;59.380;24.642;2023-06-26T16:15:18;3.65;;;3.17;;
37771;SDS011;23610;59.380;24.642;2023-06-26T16:20:20;3.83;;;3.17;;
37771;SDS011;23610;59.380;24.642;2023-06-26T16:25:23;5.10;;;3.25;;
37771;SDS011;23610;59.380;24.642;2023-06-26T16:30:26;5.15;;;3.70;;
37771;SDS011;23610;59.380;24.642;2023-06-26T16:35:28;4.63;;;4.20;;
37771;SDS011;23610;59.380;24.642;2023-06-26T16:40:33;5.63;;;3.80;;
37771;SDS011;23610;59.380;24.642;2023-06-26T16:45:35;6.28;;;3.83;;
37771;SDS011;23610;59.380;24.642;2023-06-26T16:50:38;5.50;;;3.15;;
37771;SDS011;23610;59.380;24.642;2023-06-26T16:55:41;3.78;;;3.38;;
37771;SDS011;23610;59.380;24.642;2023-06-26T17:00:44;4.90;;;3.97;;
37771;SDS011;23610;59.380;24.642;2023-06-26T17:05:48;5.35;;;3.25;;
37771;SDS011;23610;59.380;24.642;2023-06-26T17:10:51;5.47;;;3.33;;
37771;SDS011;23610;59.380;24.642;2023-06-26T17:15:54;3.25;;;2.95;;
37771;SDS011;23610;59.380;24.642;2023-06-26T17:20:56;3.08;;;2.88;;
37771;SDS011;23610;59.380;24.642;2023-06-26T17:25:59;4.15;;;3.75;;
37771;SDS011;23610;59.380;24.642;2023-06-26T17:31:04;3.60;;;3.30;;
37771;SDS011;23610;59.380;24.642;2023-06-26T17:36:07;3.50;;;3.17;;
37771;SDS011;23610;59.380;24.642;2023-06-26T17:41:09;4.97;;;3.40;;
37771;SDS011;23610;59.380;24.642;2023-06-26T17:46:12;3.88;;;3.58;;
37771;SDS011;23610;59.380;24.642;2023-06-26T17:51:15;4.03;;;2.80;;
37771;SDS011;23610;59.380;24.642;2023-06-26T17:56:17;3.25;;;2.90;;
37771;SDS011;23610;59.380;24.642;2023-06-26T18:01:20;5.30;;;3.28;;
37771;SDS011;23610;59.380;24.642;2023-06-26T18:06:22;4.45;;;3.00;;
37771;SDS011;23610;59.380;24.642;2023-06-26T18:11:25;3.95;;;3.55;;
37771;SDS011;23610;59.380;24.642;2023-06-26T18:16:29;4.20;;;3.90;;
37771;SDS011;23610;59.380;24.642;2023-06-26T18:21:32;6.43;;;4.38;;
37771;SDS011;23610;59.380;24.642;2023-06-26T18:26:35;6.72;;;4.47;;
37771;SDS011;23610;59.380;24.642;2023-06-26T18:31:37;5.43;;;3.83;;
37771;SDS011;23610;59.380;24.642;2023-06-26T18:36:40;4.95;;;4.45;;
37771;SDS011;23610;59.380;24.642;2023-06-26T18:41:43;4.82;;;4.30;;
37771;SDS011;23610;59.380;24.642;2023-06-26T18:46:45;4.80;;;4.40;;
37771;SDS011;23610;59.380;24.642;2023-06-26T18:51:48;7.57;;;5.13;;
37771;SDS011;23610;59.380;24.642;2023-06-26T18:56:51;8.80;;;4.57;;
37771;SDS011;23610;59.380;24.642;2023-06-26T19:01:55;5.90;;;4.60;;
37771;SDS011;23610;59.380;24.642;2023-06-26T19:06:58;5.80;;;5.03;;
37771;SDS011;23610;59.380;24.642;2023-06-26T19:12:01;6.57;;;4.70;;
37771;SDS011;23610;59.380;24.642;2023-06-26T19:17:04;12.40;;;5.72;;
37771;SDS011;23610;59.380;24.642;2023-06-26T19:22:07;7.65;;;5.03;;
37771;SDS011;23610;59.380;24.642;2023-06-26T19:27:09;6.63;;;4.90;;
37771;SDS011;23610;59.380;24.642;2023-06-26T19:32:12;7.05;;;5.57;;
37771;SDS011;23610;59.380;24.642;2023-06-26T19:37:15;8.07;;;5.68;;
37771;SDS011;23610;59.380;24.642;2023-06-26T19:42:17;6.25;;;5.70;;
37771;SDS011;23610;59.380;24.642;2023-06-26T19:47:20;5.85;;;5.35;;
37771;SDS011;23610;59.380;24.642;2023-06-26T19:52:22;6.82;;;5.72;;
37771;SDS011;23610;59.380;24.642;2023-06-26T19:57:25;7.10;;;5.50;;
37771;SDS011;23610;59.380;24.642;2023-06-26T20:02:27;8.50;;;6.40;;
37771;SDS011;23610;59.380;24.642;2023-06-26T20:07:30;6.82;;;6.05;;
37771;SDS011;23610;59.380;24.642;2023-06-26T20:12:33;7.70;;;6.13;;
37771;SDS011;23610;59.380;24.642;2023-06-26T20:17:36;7.18;;;6.15;;
37771;SDS011;23610;59.380;24.642;2023-06-26T20:22:41;6.88;;;6.10;;
37771;SDS011;23610;59.380;24.642;2023-06-26T20:27:44;10.98;;;6.78;;
37771;SDS011;23610;59.380;24.642;2023-06-26T20:32:46;20.73;;;7.53;;
37771;SDS011;23610;59.380;24.642;2023-06-26T20:37:49;16.02;;;6.70;;
37771;SDS011;23610;59.380;24.642;2023-06-26T20:42:51;9.20;;;6.40;;
37771;SDS011;23610;59.380;24.642;2023-06-26T20:47:54;9.32;;;6.07;;
37771;SDS011;23610;59.380;24.642;2023-06-26T20:52:57;10.82;;;7.72;;
37771;SDS011;23610;59.380;24.642;2023-06-26T20:58:00;8.43;;;7.45;;
37771;SDS011;23610;59.380;24.642;2023-06-26T21:03:03;7.95;;;7.15;;
37771;SDS011;23610;59.380;24.642;2023-06-26T21:08:06;8.38;;;6.88;;
37771;SDS011;23610;59.380;24.642;2023-06-26T21:13:08;7.60;;;6.80;;
37771;SDS011;23610;59.380;24.642;2023-06-26T21:18:11;9.98;;;7.75;;
37771;SDS011;23610;59.380;24.642;2023-06-26T21:23:13;8.63;;;7.43;;
37771;SDS011;23610;59.380;24.642;2023-06-26T21:28:16;8.85;;;7.75;;
37771;SDS011;23610;59.380;24.642;2023-06-26T21:33:19;11.18;;;8.73;;
37771;SDS011;23610;59.380;24.642;2023-06-26T21:38:21;16.98;;;10.48;;
37771;SDS011;23610;59.380;24.642;2023-06-26T21:43:24;13.93;;;9.50;;
37771;SDS011;23610;59.380;24.642;2023-06-26T21:48:27;12.07;;;9.27;;
37771;SDS011;23610;59.380;24.642;2023-06-26T21:53:29;21.92;;;14.82;;
37771;SDS011;23610;59.380;24.642;2023-06-26T21:58:32;28.88;;;18.15;;
37771;SDS011;23610;59.380;24.642;2023-06-26T22:03:34;27.98;;;19.25;;
37771;SDS011;23610;59.380;24.642;2023-06-26T22:08:37;21.42;;;13.82;;
37771;SDS011;23610;59.380;24.642;2023-06-26T22:13:40;28.70;;;16.52;;
37771;SDS011;23610;59.380;24.642;2023-06-26T22:18:42;16.20;;;11.23;;
37771;SDS011;23610;59.380;24.642;2023-06-26T22:23:45;13.85;;;8.93;;
37771;SDS011;23610;59.380;24.642;2023-06-26T22:28:48;13.88;;;10.30;;
37771;SDS011;23610;59.380;24.642;2023-06-26T22:33:51;14.23;;;9.10;;
37771;SDS011;23610;59.380;24.642;2023-06-26T22:38:53;10.20;;;7.90;;
37771;SDS011;23610;59.380;24.642;2023-06-26T22:43:56;12.90;;;7.72;;
37771;SDS011;23610;59.380;24.642;2023-06-26T22:48:59;8.30;;;6.80;;
37771;SDS011;23610;59.380;24.642;2023-06-26T22:54:01;9.35;;;7.25;;
37771;SDS011;23610;59.380;24.642;2023-06-26T22:59:04;8.77;;;7.40;;
37771;SDS011;23610;59.380;24.642;2023-06-26T23:04:06;11.45;;;7.57;;
37771;SDS011;23610;59.380;24.642;2023-06-26T23:09:09;9.85;;;7.63;;
37771;SDS011;23610;59.380;24.642;2023-06-26T23:14:13;9.57;;;7.70;;
37771;SDS011;23610;59.380;24.642;2023-06-26T23:19:16;10.30;;;8.15;;
37771;SDS011;23610;59.380;24.642;2023-06-26T23:24:19;8.02;;;6.60;;
37771;SDS011;23610;59.380;24.642;2023-06-26T23:29:23;14.70;;;9.20;;
37771;SDS011;23610;59.380;24.642;2023-06-26T23:34:25;14.18;;;10.57;;
37771;SDS011;23610;59.380;24.642;2023-06-26T23:39:29;12.65;;;7.90;;
37771;SDS011;23610;59.380;24.642;2023-06-26T23:44:32;11.82;;;7.40;;
37771;SDS011;23610;59.380;24.642;2023-06-26T23:49:37;8.85;;;7.47;;
37771;SDS011;23610;59.380;24.642;2023-06-26T23:54:40;14.20;;;6.43;;
37771;SDS011;23610;59.380;24.642;2023-06-26T23:59:43;6.35;;;5.35;;
